createdAt,value
2023-02-17T00:01:48.135Z,86.79
2023-02-17T00:04:14.616Z,86.67
2023-02-17T00:06:41.092Z,86.15
2023-02-17T00:09:07.685Z,86.60
2023-02-17T00:11:34.149Z,86.78
2023-02-17T00:14:00.801Z,87.40
2023-02-17T00:16:28.333Z,85.20
2023-02-17T00:19:00.918Z,86.29
2023-02-17T00:21:31.608Z,87.68
2023-02-17T00:23:58.615Z,87.03
2023-02-17T00:26:25.217Z,89.30
2023-02-17T00:28:51.792Z,88.31
2023-02-17T00:31:20.681Z,87.93
2023-02-17T00:33:47.837Z,86.20
2023-02-17T00:36:17.922Z,87.90
2023-02-17T00:38:45.008Z,87.26
2023-02-17T00:41:11.515Z,88.60
2023-02-17T00:43:38.054Z,89.52
2023-02-17T00:46:05.324Z,89.13
2023-02-17T00:48:32.494Z,87.09
2023-02-17T00:50:59.059Z,87.20
2023-02-17T00:53:25.557Z,87.61
2023-02-17T00:55:52.030Z,89.29
2023-02-17T00:58:18.494Z,86.76
2023-02-17T01:00:45.089Z,87.91
2023-02-17T01:03:11.634Z,87.63
2023-02-17T01:05:43.417Z,86.48
2023-02-17T01:08:10.328Z,86.54
2023-02-17T01:10:39.032Z,86.58
2023-02-17T01:13:06.691Z,88.83
2023-02-17T01:15:38.750Z,89.87
2023-02-17T01:18:05.509Z,87.93
2023-02-17T01:20:35.126Z,88.68
2023-02-17T01:23:02.001Z,88.55
2023-02-17T01:25:28.499Z,89.60
2023-02-17T01:27:55.046Z,87.54
2023-02-17T01:30:21.904Z,87.55
2023-02-17T01:32:48.862Z,89.18
2023-02-17T01:35:15.446Z,86.87
2023-02-17T01:37:41.887Z,87.19
2023-02-17T01:40:08.811Z,87.35
2023-02-17T01:42:35.290Z,86.98
2023-02-17T01:45:17.256Z,87.53
2023-02-17T01:47:54.082Z,86.47
2023-02-17T01:50:23.332Z,88.30
2023-02-17T01:52:49.975Z,88.65
2023-02-17T01:55:18.372Z,88.85
2023-02-17T01:57:45.791Z,87.94
2023-02-17T02:00:13.678Z,88.44
2023-02-17T02:02:42.418Z,89.20
2023-02-17T02:05:09.903Z,90.46
2023-02-17T02:07:39.293Z,87.66
2023-02-17T02:10:06.467Z,87.88
2023-02-17T02:12:35.565Z,88.05
2023-02-17T02:15:10.634Z,86.04
2023-02-17T02:18:07.977Z,86.75
2023-02-17T02:20:43.499Z,91.32
2023-02-17T02:23:12.968Z,87.38
2023-02-17T02:26:04.775Z,90.74
2023-02-17T02:28:52.932Z,88.75
2023-02-17T02:31:36.898Z,88.31
2023-02-17T02:34:09.868Z,89.82
2023-02-17T02:37:00.813Z,88.64
2023-02-17T02:39:30.457Z,89.02
2023-02-17T02:42:04.336Z,88.96
2023-02-17T02:44:30.996Z,86.80
2023-02-17T02:46:57.509Z,89.32
2023-02-17T02:49:24.479Z,89.71
2023-02-17T02:51:55.384Z,91.50
2023-02-17T02:54:28.422Z,89.45
2023-02-17T02:56:57.900Z,89.48
2023-02-17T02:59:44.699Z,89.84
2023-02-17T03:02:21.072Z,88.06
2023-02-17T03:05:12.768Z,88.69
2023-02-17T03:08:09.927Z,88.29
2023-02-17T03:10:36.868Z,89.06
2023-02-17T03:13:03.894Z,88.63
2023-02-17T03:15:33.379Z,87.64
2023-02-17T03:18:01.000Z,84.88
2023-02-17T03:20:33.030Z,87.22
2023-02-17T03:22:59.716Z,89.02
2023-02-17T03:25:26.223Z,89.23
2023-02-17T03:27:52.793Z,88.03
2023-02-17T03:30:19.503Z,88.13
2023-02-17T03:32:47.145Z,88.45
2023-02-17T03:35:14.099Z,87.28
2023-02-17T03:37:40.634Z,87.15
2023-02-17T03:40:08.267Z,88.04
2023-02-17T03:42:34.802Z,86.26
2023-02-17T03:45:01.304Z,86.00
2023-02-17T03:47:27.801Z,86.00
2023-02-17T03:49:54.368Z,85.44
2023-02-17T03:52:20.832Z,85.81
2023-02-17T03:54:47.333Z,86.53
2023-02-17T03:57:13.832Z,86.88
2023-02-17T03:59:40.302Z,88.13
2023-02-17T04:02:06.878Z,88.20
2023-02-17T04:04:33.413Z,89.19
2023-02-17T04:06:59.881Z,85.65
2023-02-17T04:09:26.491Z,86.86
2023-02-17T04:11:52.957Z,88.95
2023-02-17T04:14:19.472Z,90.47
2023-02-17T04:16:46.085Z,87.39
2023-02-17T04:19:12.621Z,87.44
2023-02-17T04:21:39.140Z,89.97
2023-02-17T04:24:05.924Z,90.03
2023-02-17T04:26:32.374Z,88.95
2023-02-17T04:28:58.862Z,88.29
2023-02-17T04:31:28.066Z,89.00
2023-02-17T04:33:55.045Z,88.99
2023-02-17T04:36:21.569Z,89.28
2023-02-17T04:38:48.234Z,88.32
2023-02-17T04:41:14.772Z,89.72
2023-02-17T04:43:41.391Z,88.62
2023-02-17T04:46:08.315Z,88.99
2023-02-17T04:48:35.139Z,90.00
2023-02-17T04:51:01.653Z,90.03
2023-02-17T04:53:28.134Z,90.27
2023-02-17T04:55:54.824Z,89.93
2023-02-17T04:58:21.984Z,88.99
2023-02-17T05:00:49.817Z,89.71
2023-02-17T05:03:17.448Z,88.90
2023-02-17T05:05:44.459Z,89.25
2023-02-17T05:08:11.080Z,89.68
2023-02-17T05:10:37.562Z,88.94
2023-02-17T05:13:04.025Z,89.80
2023-02-17T05:15:31.043Z,87.63
2023-02-17T05:17:58.493Z,89.98
2023-02-17T05:20:25.062Z,89.48
2023-02-17T05:22:51.514Z,88.13
2023-02-17T05:25:18.618Z,87.22
2023-02-17T05:27:45.182Z,88.92
2023-02-17T05:30:12.145Z,87.52
2023-02-17T05:32:38.602Z,88.37
2023-02-17T05:35:05.340Z,91.12
2023-02-17T05:37:31.774Z,88.56
2023-02-17T05:39:58.256Z,86.34
2023-02-17T05:42:28.753Z,89.56
2023-02-17T05:44:55.972Z,86.22
2023-02-17T05:47:23.239Z,87.26
2023-02-17T05:49:49.819Z,87.18
2023-02-17T05:52:18.213Z,88.73
2023-02-17T05:54:44.820Z,90.50
2023-02-17T05:57:11.262Z,90.25
2023-02-17T05:59:37.718Z,88.77
2023-02-17T06:02:04.155Z,91.38
2023-02-17T06:04:30.671Z,90.62
2023-02-17T06:06:57.154Z,91.80
2023-02-17T06:09:23.684Z,92.14
2023-02-17T06:11:50.147Z,91.31
2023-02-17T06:14:16.617Z,89.32
2023-02-17T06:16:43.041Z,89.40
2023-02-17T06:19:09.529Z,88.67
2023-02-17T06:21:36.118Z,91.03
2023-02-17T06:24:02.684Z,91.53
2023-02-17T06:26:29.164Z,91.70
2023-02-17T06:28:55.616Z,90.38
2023-02-17T06:31:22.196Z,89.86
2023-02-17T06:33:48.699Z,89.14
2023-02-17T06:36:16.264Z,91.34
2023-02-17T06:38:42.741Z,89.93
2023-02-17T06:41:09.829Z,90.50
2023-02-17T06:43:36.357Z,89.11
2023-02-17T06:46:02.889Z,90.25
2023-02-17T06:48:29.505Z,89.15
2023-02-17T06:50:55.972Z,90.99
2023-02-17T06:53:22.416Z,91.38
2023-02-17T06:55:48.899Z,90.77
2023-02-17T06:58:15.344Z,92.51
2023-02-17T07:00:41.847Z,90.31
2023-02-17T07:03:08.457Z,91.30
2023-02-17T07:05:36.604Z,89.90
2023-02-17T07:08:03.991Z,88.43
2023-02-17T07:10:31.060Z,89.03
2023-02-17T07:12:57.552Z,91.31
2023-02-17T07:15:24.027Z,91.19
2023-02-17T07:17:50.512Z,90.31
2023-02-17T07:20:17.203Z,89.81
2023-02-17T07:22:43.653Z,91.12
2023-02-17T07:25:10.223Z,93.92
2023-02-17T07:27:37.227Z,91.30
2023-02-17T07:30:05.083Z,89.56
2023-02-17T07:32:31.573Z,90.19
2023-02-17T07:34:58.071Z,91.64
2023-02-17T07:37:24.604Z,91.54
2023-02-17T07:39:52.404Z,89.49
2023-02-17T07:42:18.946Z,91.21
2023-02-17T07:44:45.433Z,90.07
2023-02-17T07:47:11.904Z,93.39
2023-02-17T07:49:38.436Z,91.19
2023-02-17T07:52:05.495Z,91.24
2023-02-17T07:54:32.116Z,92.74
2023-02-17T07:56:58.604Z,92.74
2023-02-17T07:59:25.053Z,92.68
2023-02-17T08:01:51.590Z,92.83
2023-02-17T08:04:18.194Z,91.84
2023-02-17T08:06:44.755Z,92.60
2023-02-17T08:09:29.766Z,93.17
2023-02-17T08:12:14.963Z,92.65
2023-02-17T08:14:41.467Z,93.23
2023-02-17T08:17:08.034Z,91.79
2023-02-17T08:19:47.419Z,91.75
2023-02-17T08:22:14.393Z,92.35
2023-02-17T08:24:40.916Z,92.67
2023-02-17T08:27:07.426Z,93.16
2023-02-17T08:29:33.907Z,93.75
2023-02-17T08:32:00.464Z,92.21
2023-02-17T08:34:28.188Z,91.59
2023-02-17T08:36:54.638Z,90.85
2023-02-17T08:39:21.110Z,93.25
2023-02-17T08:41:48.321Z,92.89
2023-02-17T08:44:17.411Z,92.94
2023-02-17T08:46:45.534Z,93.34
2023-02-17T08:49:13.737Z,92.42
2023-02-17T08:51:40.780Z,91.62
2023-02-17T08:54:08.387Z,92.02
2023-02-17T08:56:36.690Z,91.49
2023-02-17T08:59:03.656Z,94.77
2023-02-17T09:01:30.695Z,92.14
2023-02-17T09:04:00.105Z,93.47
2023-02-17T09:06:53.397Z,92.78
2023-02-17T09:09:28.392Z,92.42
2023-02-17T09:11:56.633Z,93.08
2023-02-17T09:14:25.423Z,91.97
2023-02-17T09:16:52.575Z,93.81
2023-02-17T09:19:19.369Z,92.78
2023-02-17T09:21:45.922Z,93.96
2023-02-17T09:24:12.439Z,91.88
2023-02-17T09:26:39.119Z,91.51
2023-02-17T09:29:06.204Z,94.85
2023-02-17T09:31:34.591Z,94.01
2023-02-17T09:34:01.751Z,92.43
2023-02-17T09:36:31.849Z,91.03
2023-02-17T09:38:58.919Z,92.88
2023-02-17T09:41:45.296Z,90.34
2023-02-17T09:44:39.636Z,90.41
2023-02-17T09:47:34.636Z,93.16
2023-02-17T09:50:07.953Z,92.37
2023-02-17T09:52:53.522Z,92.38
2023-02-17T09:55:33.854Z,91.24
2023-02-17T09:58:04.098Z,92.31
2023-02-17T10:00:34.097Z,93.61
2023-02-17T10:03:15.308Z,92.80
2023-02-17T10:05:55.698Z,94.43
2023-02-17T10:08:25.186Z,92.48
2023-02-17T10:11:04.946Z,94.15
2023-02-17T10:13:34.472Z,94.57
2023-02-17T10:16:10.466Z,93.80
2023-02-17T10:18:45.646Z,92.55
2023-02-17T10:21:27.245Z,94.18
2023-02-17T10:23:53.740Z,94.51
2023-02-17T10:26:39.392Z,93.15
2023-02-17T10:29:13.732Z,94.73
2023-02-17T10:31:45.920Z,94.22
2023-02-17T10:34:24.801Z,92.24
2023-02-17T10:36:52.206Z,94.40
2023-02-17T10:39:50.581Z,92.33
2023-02-17T10:42:34.259Z,93.42
2023-02-17T10:45:04.545Z,95.91
2023-02-17T10:47:31.240Z,96.58
2023-02-17T10:49:58.301Z,95.74
2023-02-17T10:52:32.800Z,93.16
2023-02-17T10:55:23.048Z,95.74
2023-02-17T10:57:54.707Z,94.19
2023-02-17T11:00:21.589Z,93.38
2023-02-17T11:02:51.539Z,94.68
2023-02-17T11:05:28.544Z,92.33
2023-02-17T11:08:23.782Z,93.83
2023-02-17T11:11:00.397Z,93.81
2023-02-17T11:13:39.328Z,94.33
2023-02-17T11:16:06.613Z,92.50
2023-02-17T11:18:35.934Z,94.66
2023-02-17T11:21:08.295Z,92.98
2023-02-17T11:23:35.783Z,91.34
2023-02-17T11:26:20.790Z,92.11
2023-02-17T11:28:47.282Z,91.76
2023-02-17T11:31:31.331Z,95.67
2023-02-17T11:33:57.989Z,95.48
2023-02-17T11:36:28.132Z,95.90
2023-02-17T11:38:54.867Z,94.96
2023-02-17T11:41:21.464Z,94.98
2023-02-17T11:43:56.296Z,95.47
2023-02-17T11:46:28.462Z,95.65
2023-02-17T11:49:07.777Z,93.91
2023-02-17T11:51:43.859Z,94.76
2023-02-17T11:54:55.659Z,92.92
2023-02-17T11:57:31.001Z,95.18
2023-02-17T12:00:17.735Z,94.95
2023-02-17T12:03:06.442Z,95.64
2023-02-17T12:05:51.744Z,96.04
2023-02-17T12:08:38.352Z,96.05
2023-02-17T12:11:09.969Z,95.79
2023-02-17T12:13:53.801Z,98.65
2023-02-17T12:16:34.356Z,92.94
2023-02-17T12:19:28.891Z,96.41
2023-02-17T12:22:02.689Z,93.02
2023-02-17T12:24:38.180Z,95.77
2023-02-17T12:27:16.644Z,93.77
2023-02-17T12:30:15.027Z,94.33
2023-02-17T12:32:50.574Z,94.56
2023-02-17T12:35:26.000Z,95.36
2023-02-17T12:38:01.320Z,95.99
2023-02-17T12:40:50.919Z,96.34
2023-02-17T12:43:39.960Z,95.16
2023-02-17T12:46:12.807Z,94.32
2023-02-17T12:49:03.180Z,93.18
2023-02-17T12:51:53.591Z,94.27
2023-02-17T12:54:32.954Z,95.32
2023-02-17T12:57:08.674Z,93.96
2023-02-17T12:59:40.131Z,93.84
2023-02-17T13:02:22.246Z,93.73
2023-02-17T13:04:54.292Z,92.58
2023-02-17T13:07:38.482Z,94.44
2023-02-17T13:10:05.985Z,93.16
2023-02-17T13:12:36.850Z,94.44
2023-02-17T13:15:07.077Z,93.91
2023-02-17T13:17:38.085Z,94.89
2023-02-17T13:20:10.517Z,93.49
2023-02-17T13:22:38.581Z,92.30
2023-02-17T13:25:05.579Z,91.28
2023-02-17T13:27:33.702Z,91.96
2023-02-17T13:30:10.132Z,91.36
2023-02-17T13:32:38.490Z,90.54
2023-02-17T13:35:18.191Z,90.23
2023-02-17T13:37:46.483Z,90.66
2023-02-17T13:40:16.021Z,89.02
2023-02-17T13:43:06.784Z,89.16
2023-02-17T13:45:39.848Z,88.58
2023-02-17T13:48:21.498Z,85.31
2023-02-17T13:50:56.826Z,86.79
2023-02-17T13:53:32.404Z,86.17
2023-02-17T13:56:04.351Z,84.69
2023-02-17T13:58:35.966Z,85.42
2023-02-17T14:01:04.453Z,84.40
2023-02-17T14:03:35.909Z,84.31
2023-02-17T14:06:03.550Z,84.25
2023-02-17T14:08:35.262Z,82.85
2023-02-17T14:11:11.899Z,82.10
2023-02-17T14:13:40.487Z,82.44
2023-02-17T14:16:07.670Z,82.57
2023-02-17T14:18:42.799Z,82.12
2023-02-17T14:21:13.029Z,82.28
2023-02-17T14:23:45.662Z,82.96
2023-02-17T14:26:33.972Z,81.61
2023-02-17T14:29:03.116Z,81.38
2023-02-17T14:31:29.868Z,83.46
2023-02-17T14:33:59.731Z,82.86
2023-02-17T14:36:38.003Z,81.36
2023-02-17T14:39:12.178Z,81.53
2023-02-17T14:41:38.647Z,80.47
2023-02-17T14:44:06.120Z,80.43
2023-02-17T14:46:33.533Z,81.32
2023-02-17T14:49:00.178Z,79.78
2023-02-17T14:51:32.992Z,79.37
2023-02-17T14:54:02.473Z,78.66
2023-02-17T14:56:35.140Z,79.11
2023-02-17T14:59:01.571Z,77.45
2023-02-17T15:01:28.701Z,77.48
2023-02-17T15:03:55.493Z,77.04
2023-02-17T15:06:30.212Z,76.23
2023-02-17T15:08:58.610Z,76.01
2023-02-17T15:11:32.371Z,76.14
2023-02-17T15:13:58.800Z,75.57
2023-02-17T15:16:25.299Z,74.00
2023-02-17T15:18:52.001Z,73.86
2023-02-17T15:21:29.092Z,74.11
2023-02-17T15:23:56.614Z,73.66
2023-02-17T15:26:23.285Z,72.80
2023-02-17T15:28:50.109Z,72.70
2023-02-17T15:31:17.411Z,72.06
2023-02-17T15:33:45.209Z,72.53
2023-02-17T15:36:16.954Z,72.21
2023-02-17T15:38:43.624Z,72.16
2023-02-17T15:41:14.864Z,71.66
2023-02-17T15:43:41.294Z,72.23
2023-02-17T15:46:13.823Z,71.45
2023-02-17T15:48:40.898Z,72.17
2023-02-17T15:51:10.890Z,72.25
2023-02-17T15:53:37.363Z,72.30
2023-02-17T15:56:04.716Z,72.73
2023-02-17T15:58:31.680Z,72.28
2023-02-17T16:01:02.164Z,72.34
2023-02-17T16:03:28.716Z,72.39
2023-02-17T16:05:55.268Z,71.97
2023-02-17T16:08:21.797Z,72.48
2023-02-17T16:10:50.220Z,72.93
2023-02-17T16:13:18.926Z,72.61
2023-02-17T16:15:46.519Z,71.78
2023-02-17T16:18:21.746Z,73.18
2023-02-17T16:20:48.700Z,73.08
2023-02-17T16:23:15.256Z,72.87
2023-02-17T16:25:44.508Z,72.56
2023-02-17T16:28:16.626Z,71.93
2023-02-17T16:30:43.646Z,72.38
2023-02-17T16:33:11.134Z,72.47
2023-02-17T16:35:37.754Z,71.26
2023-02-17T16:38:16.540Z,72.44
2023-02-17T16:40:48.903Z,72.92
2023-02-17T16:43:22.731Z,72.30
2023-02-17T16:45:55.750Z,73.17
2023-02-17T16:48:28.360Z,71.40
2023-02-17T16:50:55.515Z,73.41
2023-02-17T16:53:22.154Z,72.83
2023-02-17T16:55:49.314Z,71.72
2023-02-17T16:58:22.932Z,72.77
2023-02-17T17:00:54.718Z,72.79
2023-02-17T17:03:42.299Z,72.37
2023-02-17T17:06:29.976Z,73.88
2023-02-17T17:08:59.246Z,72.33
2023-02-17T17:11:29.907Z,72.47
2023-02-17T17:13:59.249Z,72.20
2023-02-17T17:16:36.258Z,73.13
2023-02-17T17:19:04.281Z,73.63
2023-02-17T17:21:32.625Z,73.25
2023-02-17T17:23:59.339Z,73.29
2023-02-17T17:26:36.304Z,72.78
2023-02-17T17:29:05.499Z,73.39
2023-02-17T17:31:35.323Z,71.36
2023-02-17T17:34:02.371Z,72.36
2023-02-17T17:36:39.336Z,73.35
2023-02-17T17:39:12.117Z,72.17
2023-02-17T17:41:40.474Z,71.89
2023-02-17T17:44:08.424Z,71.50
2023-02-17T17:46:37.926Z,71.80
2023-02-17T17:49:06.129Z,72.60
2023-02-17T17:51:33.884Z,71.03
2023-02-17T17:54:00.617Z,72.55
2023-02-17T17:56:32.823Z,71.97
2023-02-17T17:59:00.706Z,71.57
2023-02-17T18:01:27.689Z,71.51
2023-02-17T18:03:54.633Z,71.60
2023-02-17T18:06:43.011Z,72.08
2023-02-17T18:09:25.809Z,71.01
2023-02-17T18:11:58.486Z,70.67
2023-02-17T18:14:25.034Z,72.38
2023-02-17T18:16:51.902Z,71.89
2023-02-17T18:19:19.979Z,71.22
2023-02-17T18:21:47.738Z,72.65
2023-02-17T18:24:15.315Z,72.50
2023-02-17T18:26:42.692Z,72.49
2023-02-17T18:29:13.092Z,72.65
2023-02-17T18:31:39.693Z,73.12
2023-02-17T18:34:06.234Z,73.77
2023-02-17T18:36:32.700Z,72.61
2023-02-17T18:38:59.164Z,72.87
2023-02-17T18:41:30.242Z,72.56
2023-02-17T18:43:57.973Z,70.72
2023-02-17T18:46:26.757Z,72.34
2023-02-17T18:48:54.971Z,72.32
2023-02-17T18:51:23.445Z,71.71
2023-02-17T18:53:50.815Z,72.00
2023-02-17T18:56:22.503Z,72.09
2023-02-17T18:58:50.611Z,72.72
2023-02-17T19:01:19.730Z,72.34
2023-02-17T19:03:46.732Z,72.22
2023-02-17T19:06:16.218Z,71.80
2023-02-17T19:08:46.851Z,72.00
2023-02-17T19:11:15.178Z,71.99
2023-02-17T19:13:41.810Z,72.06
2023-02-17T19:16:15.153Z,71.90
2023-02-17T19:18:42.537Z,72.86
2023-02-17T19:21:09.171Z,72.96
2023-02-17T19:23:36.861Z,72.94
2023-02-17T19:26:08.461Z,73.51
2023-02-17T19:28:36.714Z,73.31
2023-02-17T19:31:10.053Z,72.82
2023-02-17T19:33:36.808Z,72.27
2023-02-17T19:36:12.045Z,72.16
2023-02-17T19:38:38.723Z,72.49
2023-02-17T19:41:08.015Z,71.66
2023-02-17T19:43:34.606Z,71.45
2023-02-17T19:46:01.556Z,69.92
2023-02-17T19:48:28.176Z,69.61
2023-02-17T19:51:06.352Z,69.73
2023-02-17T19:53:33.539Z,68.50
2023-02-17T19:56:14.214Z,69.54
2023-02-17T19:58:42.466Z,70.07
2023-02-17T20:01:11.566Z,69.59
2023-02-17T20:03:38.592Z,70.16
2023-02-17T20:06:10.771Z,69.30
2023-02-17T20:08:40.128Z,70.07
2023-02-17T20:11:08.661Z,70.08
2023-02-17T20:13:45.198Z,70.35
2023-02-17T20:16:14.315Z,70.84
2023-02-17T20:18:42.587Z,70.70
2023-02-17T20:21:10.797Z,70.98
2023-02-17T20:23:37.247Z,70.68
2023-02-17T20:26:09.184Z,71.63
2023-02-17T20:28:36.085Z,73.01
2023-02-17T20:31:03.134Z,71.63
2023-02-17T20:33:29.802Z,72.51
2023-02-17T20:35:56.281Z,72.39
2023-02-17T20:38:22.785Z,71.35
2023-02-17T20:40:49.371Z,71.95
2023-02-17T20:43:15.810Z,71.33
2023-02-17T20:45:42.833Z,70.83
2023-02-17T20:48:09.949Z,69.52
2023-02-17T20:50:36.478Z,68.36
2023-02-17T20:53:03.378Z,70.01
2023-02-17T20:55:30.135Z,68.46
2023-02-17T20:57:56.590Z,68.97
2023-02-17T21:00:25.089Z,68.42
2023-02-17T21:02:54.460Z,69.87
2023-02-17T21:05:22.445Z,69.18
2023-02-17T21:07:49.661Z,69.50
2023-02-17T21:10:21.948Z,69.47
2023-02-17T21:12:48.860Z,71.39
2023-02-17T21:15:15.895Z,69.86
2023-02-17T21:17:42.361Z,72.50
2023-02-17T21:20:11.422Z,71.49
2023-02-17T21:22:37.930Z,71.24
2023-02-17T21:25:05.293Z,72.14
2023-02-17T21:27:32.342Z,71.05
2023-02-17T21:29:59.037Z,71.13
2023-02-17T21:32:26.147Z,71.70
2023-02-17T21:34:52.670Z,70.34
2023-02-17T21:37:19.223Z,70.70
2023-02-17T21:39:47.791Z,71.42
2023-02-17T21:42:36.051Z,71.13
2023-02-17T21:45:02.653Z,69.96
2023-02-17T21:47:29.233Z,71.83
2023-02-17T21:49:55.766Z,71.21
2023-02-17T21:52:22.675Z,71.99
2023-02-17T21:54:49.162Z,71.24
2023-02-17T21:57:15.624Z,70.58
2023-02-17T21:59:44.087Z,70.06
2023-02-17T22:02:11.773Z,70.58
2023-02-17T22:04:38.234Z,70.64
2023-02-17T22:07:04.806Z,71.04
2023-02-17T22:09:31.283Z,71.43
2023-02-17T22:11:57.740Z,71.38
2023-02-17T22:14:25.699Z,71.30
2023-02-17T22:16:52.881Z,71.73
2023-02-17T22:19:22.680Z,71.65
2023-02-17T22:21:50.443Z,72.64
2023-02-17T22:24:18.171Z,71.85
2023-02-17T22:26:51.232Z,72.35
2023-02-17T22:29:18.740Z,72.70
2023-02-17T22:31:45.491Z,72.84
2023-02-17T22:34:13.385Z,72.49
2023-02-17T22:36:39.960Z,71.85
2023-02-17T22:39:07.889Z,72.56
2023-02-17T22:41:35.581Z,72.64
2023-02-17T22:44:03.079Z,72.15
2023-02-17T22:46:29.623Z,72.47
2023-02-17T22:48:56.615Z,72.89
2023-02-17T22:51:29.457Z,72.43
2023-02-17T22:53:56.067Z,73.57
2023-02-17T22:56:24.045Z,71.29
2023-02-17T22:58:55.733Z,73.02
2023-02-17T23:01:22.618Z,72.77
2023-02-17T23:03:54.316Z,71.94
2023-02-17T23:06:24.881Z,72.71
2023-02-17T23:08:52.825Z,72.86
2023-02-17T23:11:45.725Z,71.97
2023-02-17T23:14:13.825Z,72.64
2023-02-17T23:16:42.289Z,71.82
2023-02-17T23:19:11.441Z,71.40
2023-02-17T23:21:37.942Z,72.34
2023-02-17T23:24:04.701Z,72.96
2023-02-17T23:26:31.175Z,71.89
2023-02-17T23:28:57.644Z,72.18
2023-02-17T23:31:24.414Z,72.64
2023-02-17T23:33:51.948Z,72.66
2023-02-17T23:36:18.450Z,71.95
2023-02-17T23:38:44.916Z,72.88
2023-02-17T23:41:11.820Z,72.89
2023-02-17T23:43:38.357Z,71.97
2023-02-17T23:46:05.150Z,71.19
2023-02-17T23:48:31.705Z,72.36
2023-02-17T23:51:03.325Z,72.67
2023-02-17T23:53:30.830Z,74.22
2023-02-17T23:56:05.436Z,72.88
2023-02-17T23:58:32.362Z,73.26
